Terminal Aerodrome Forecast
Issued by NWS Topeka, KS

Home | Current Version | Previous Version | Graphics & Text | Print | Product List | Glossary On
Versions: 1 2 3 4 5 6 7 8 9 10 11 12 13 14 15 16 17 18 19 20 21 22 23 24 25
000
FTUS43 KTOP 201730
TAFTOP
TAF
KTOP 201730Z 2018/2118 18008KT P6SM BKN025
     FM210000 13004KT P6SM SCT008
     FM210200 13004KT 5SM BR SCT006
     FM210500 12004KT 2SM BR BKN006
     FM211300 12005KT 6SM BR SCT006 BKN015=

USA.gov is the U.S. government's official web portal to all federal, state and local government web resources and services.